createdAt,value
2023-04-10T00:00:31.560Z,7.04
2023-04-10T00:03:00.415Z,6.98
2023-04-10T00:05:28.541Z,6.93
2023-04-10T00:07:57.831Z,6.90
2023-04-10T00:10:26.536Z,6.86
2023-04-10T00:12:56.440Z,6.83
2023-04-10T00:15:25.149Z,6.70
2023-04-10T00:17:55.338Z,6.75
2023-04-10T00:20:23.624Z,6.69
2023-04-10T00:22:51.448Z,6.66
2023-04-10T00:25:23.054Z,6.65
2023-04-10T00:27:51.201Z,6.59
2023-04-10T00:30:19.310Z,6.59
2023-04-10T00:32:47.204Z,6.61
2023-04-10T00:35:15.602Z,6.65
2023-04-10T00:37:43.544Z,6.65
2023-04-10T00:40:12.377Z,6.66
2023-04-10T00:42:41.714Z,6.60
2023-04-10T00:45:10.833Z,6.56
2023-04-10T00:47:39.125Z,6.55
2023-04-10T00:50:07.945Z,6.53
2023-04-10T00:52:36.203Z,6.48
2023-04-10T00:55:04.427Z,6.47
2023-04-10T00:57:32.386Z,6.45
2023-04-10T01:00:02.028Z,6.43
2023-04-10T01:02:29.916Z,6.41
2023-04-10T01:04:57.964Z,6.45
2023-04-10T01:07:32.464Z,6.48
2023-04-10T01:10:06.531Z,6.47
2023-04-10T01:12:43.988Z,6.37
2023-04-10T01:15:16.360Z,6.41
2023-04-10T01:17:47.649Z,6.40
2023-04-10T01:20:21.973Z,6.35
2023-04-10T01:23:14.853Z,6.30
2023-04-10T01:25:45.571Z,6.00
2023-04-10T01:28:32.485Z,6.21
2023-04-10T01:31:03.803Z,6.15
2023-04-10T01:33:48.741Z,6.11
2023-04-10T01:36:21.470Z,6.05
2023-04-10T01:38:51.107Z,6.06
2023-04-10T01:41:20.072Z,6.01
2023-04-10T01:43:49.757Z,6.02
2023-04-10T01:46:19.916Z,6.00
2023-04-10T01:48:48.340Z,5.97
2023-04-10T01:51:16.824Z,5.99
2023-04-10T01:53:45.430Z,5.97
2023-04-10T01:56:14.129Z,5.96
2023-04-10T01:58:42.744Z,5.87
2023-04-10T02:01:22.567Z,5.86
2023-04-10T02:03:58.496Z,5.83
2023-04-10T02:06:33.151Z,5.84
2023-04-10T02:09:09.575Z,5.82
2023-04-10T02:11:43.292Z,5.79
2023-04-10T02:14:13.433Z,5.77
2023-04-10T02:16:42.238Z,5.73
2023-04-10T02:19:12.518Z,5.72
2023-04-10T02:21:42.156Z,5.71
2023-04-10T02:24:10.010Z,5.71
2023-04-10T02:26:47.650Z,5.74
2023-04-10T02:29:15.607Z,5.80
2023-04-10T02:31:44.229Z,5.85
2023-04-10T02:34:13.903Z,5.91
2023-04-10T02:36:41.905Z,5.86
2023-04-10T02:39:09.783Z,5.98
2023-04-10T02:41:37.521Z,6.00
2023-04-10T02:44:06.879Z,5.95
2023-04-10T02:46:34.725Z,5.90
2023-04-10T02:49:02.669Z,5.88
2023-04-10T02:51:36.242Z,5.85
2023-04-10T02:54:04.088Z,5.87
2023-04-10T02:56:32.191Z,5.87
2023-04-10T02:58:59.981Z,5.82
2023-04-10T03:01:27.926Z,5.74
2023-04-10T03:03:56.049Z,5.65
2023-04-10T03:06:27.240Z,5.78
2023-04-10T03:08:56.728Z,5.72
2023-04-10T03:11:24.742Z,5.69
2023-04-10T03:13:52.665Z,5.67
2023-04-10T03:16:20.810Z,5.62
2023-04-10T03:18:48.701Z,5.59
2023-04-10T03:21:16.613Z,5.55
2023-04-10T03:23:44.490Z,5.56
2023-04-10T03:26:13.646Z,5.55
2023-04-10T03:28:41.479Z,5.51
2023-04-10T03:31:09.857Z,5.52
2023-04-10T03:33:37.814Z,5.48
2023-04-10T03:36:06.453Z,5.33
2023-04-10T03:38:34.434Z,5.42
2023-04-10T03:41:02.221Z,5.39
2023-04-10T03:43:32.115Z,5.24
2023-04-10T03:45:59.982Z,5.37
2023-04-10T03:48:28.481Z,5.38
2023-04-10T03:50:56.535Z,5.36
2023-04-10T03:53:24.768Z,5.35
2023-04-10T03:55:53.152Z,5.35
2023-04-10T03:58:20.982Z,5.35
2023-04-10T04:00:50.491Z,5.36
2023-04-10T04:03:18.457Z,5.37
2023-04-10T04:05:46.552Z,5.36
2023-04-10T04:08:14.348Z,5.35
2023-04-10T04:10:42.192Z,5.33
2023-04-10T04:13:10.072Z,5.33
2023-04-10T04:15:37.906Z,5.34
2023-04-10T04:18:07.415Z,5.34
2023-04-10T04:20:35.258Z,5.32
2023-04-10T04:23:03.061Z,5.28
2023-04-10T04:25:30.932Z,5.30
2023-04-10T04:27:58.752Z,5.29
2023-04-10T04:30:26.628Z,5.27
2023-04-10T04:32:54.481Z,5.27
2023-04-10T04:35:24.193Z,5.25
2023-04-10T04:37:52.026Z,5.23
2023-04-10T04:40:19.932Z,5.21
2023-04-10T04:42:47.785Z,5.15
2023-04-10T04:45:15.561Z,5.20
2023-04-10T04:47:43.427Z,5.17
2023-04-10T04:50:11.546Z,5.21
2023-04-10T04:52:40.760Z,5.22
2023-04-10T04:55:09.625Z,5.20
2023-04-10T04:57:37.507Z,5.20
2023-04-10T05:00:06.345Z,5.20
2023-04-10T05:02:34.273Z,5.22
2023-04-10T05:05:02.441Z,5.21
2023-04-10T05:07:30.319Z,5.24
2023-04-10T05:09:59.682Z,5.25
2023-04-10T05:12:27.521Z,5.28
2023-04-10T05:14:55.400Z,5.25
2023-04-10T05:17:23.284Z,5.26
2023-04-10T05:19:51.326Z,5.27
2023-04-10T05:22:19.159Z,5.31
2023-04-10T05:24:47.131Z,5.34
2023-04-10T05:27:16.393Z,5.34
2023-04-10T05:29:44.182Z,5.41
2023-04-10T05:32:12.084Z,5.46
2023-04-10T05:34:39.993Z,5.50
2023-04-10T05:37:08.943Z,5.57
2023-04-10T05:39:36.795Z,5.65
2023-04-10T05:42:04.846Z,5.66
2023-04-10T05:44:34.020Z,5.72
2023-04-10T05:47:01.864Z,5.75
2023-04-10T05:49:29.654Z,5.76
2023-04-10T05:51:57.468Z,5.84
2023-04-10T05:54:25.456Z,5.85
2023-04-10T05:56:53.280Z,5.90
2023-04-10T05:59:21.298Z,6.02
2023-04-10T06:01:50.933Z,6.11
2023-04-10T06:04:19.099Z,6.19
2023-04-10T06:06:47.213Z,6.22
2023-04-10T06:09:15.057Z,6.30
2023-04-10T06:11:42.883Z,6.39
2023-04-10T06:14:10.664Z,6.46
2023-04-10T06:16:38.642Z,6.53
2023-04-10T06:19:07.989Z,6.58
2023-04-10T06:21:36.041Z,6.74
2023-04-10T06:24:03.891Z,6.78
2023-04-10T06:26:31.757Z,6.80
2023-04-10T06:28:59.630Z,6.87
2023-04-10T06:31:27.489Z,6.96
2023-04-10T06:33:55.724Z,7.02
2023-04-10T06:36:24.939Z,6.71
2023-04-10T06:38:52.961Z,7.32
2023-04-10T06:41:20.872Z,7.42
2023-04-10T06:43:49.142Z,7.31
2023-04-10T06:46:17.339Z,7.57
2023-04-10T06:48:53.332Z,7.51
2023-04-10T06:51:21.226Z,7.72
2023-04-10T06:53:50.421Z,7.84
2023-04-10T06:56:18.233Z,7.88
2023-04-10T06:58:46.282Z,7.95
2023-04-10T07:01:14.236Z,8.11
2023-04-10T07:03:42.098Z,8.07
2023-04-10T07:06:11.794Z,8.19
2023-04-10T07:08:39.672Z,8.35
2023-04-10T07:11:08.979Z,8.47
2023-04-10T07:13:38.914Z,8.37
2023-04-10T07:16:08.329Z,8.36
2023-04-10T07:18:38.526Z,8.58
2023-04-10T07:21:12.418Z,8.70
2023-04-10T07:23:40.886Z,8.73
2023-04-10T07:26:10.113Z,8.84
2023-04-10T07:28:38.311Z,8.81
2023-04-10T07:31:07.955Z,8.90
2023-04-10T07:33:36.414Z,8.87
2023-04-10T07:36:05.963Z,8.84
2023-04-10T07:38:33.953Z,8.96
2023-04-10T07:41:01.745Z,9.17
2023-04-10T07:43:31.015Z,9.06
2023-04-10T07:45:59.050Z,9.00
2023-04-10T07:48:27.026Z,9.15
2023-04-10T07:50:54.846Z,9.26
2023-04-10T07:53:22.742Z,9.18
2023-04-10T07:55:50.931Z,9.15
2023-04-10T07:58:18.744Z,9.00
2023-04-10T08:00:48.171Z,9.07
2023-04-10T08:03:16.792Z,9.24
2023-04-10T08:05:44.787Z,9.55
2023-04-10T08:08:12.685Z,9.79
2023-04-10T08:10:40.494Z,9.98
2023-04-10T08:13:08.349Z,9.73
2023-04-10T08:15:36.317Z,9.77
2023-04-10T08:18:05.572Z,9.87
2023-04-10T08:20:37.004Z,9.92
2023-04-10T08:23:17.159Z,9.83
2023-04-10T08:25:47.946Z,10.21
2023-04-10T08:28:15.720Z,10.07
2023-04-10T08:30:43.522Z,10.24
2023-04-10T08:33:12.733Z,10.39
2023-04-10T08:35:40.582Z,10.68
2023-04-10T08:38:14.065Z,10.91
2023-04-10T08:40:44.474Z,11.01
2023-04-10T08:43:12.596Z,11.19
2023-04-10T08:45:41.920Z,10.89
2023-04-10T08:48:13.174Z,10.87
2023-04-10T08:50:43.343Z,11.02
2023-04-10T08:53:13.215Z,11.08
2023-04-10T08:55:41.767Z,11.12
2023-04-10T08:58:11.377Z,11.61
2023-04-10T09:00:39.974Z,11.55
2023-04-10T09:03:11.899Z,11.63
2023-04-10T09:05:41.259Z,11.58
2023-04-10T09:08:09.494Z,11.61
2023-04-10T09:10:37.436Z,11.70
2023-04-10T09:13:05.300Z,11.65
2023-04-10T09:15:59.595Z,11.54
2023-04-10T09:18:42.622Z,11.42
2023-04-10T09:21:13.289Z,11.31
2023-04-10T09:23:42.748Z,11.58
2023-04-10T09:26:29.304Z,11.31
2023-04-10T09:29:02.506Z,11.25
2023-04-10T09:31:35.397Z,10.95
2023-04-10T09:34:14.075Z,11.37
2023-04-10T09:36:43.695Z,11.14
2023-04-10T09:39:12.955Z,11.05
2023-04-10T09:41:51.712Z,11.34
2023-04-10T09:44:21.452Z,11.78
2023-04-10T09:46:49.727Z,11.88
2023-04-10T09:49:17.608Z,11.93
2023-04-10T09:51:47.451Z,12.01
2023-04-10T09:54:15.372Z,12.61
2023-04-10T09:56:46.590Z,12.48
2023-04-10T09:59:15.732Z,12.18
2023-04-10T10:01:43.772Z,12.39
2023-04-10T10:04:12.712Z,12.68
2023-04-10T10:06:40.650Z,12.84
2023-04-10T10:09:10.348Z,13.51
2023-04-10T10:11:38.316Z,13.88
2023-04-10T10:14:11.140Z,13.93
2023-04-10T10:16:42.752Z,13.74
2023-04-10T10:19:14.699Z,13.37
2023-04-10T10:21:44.434Z,13.30
2023-04-10T10:24:14.409Z,13.41
2023-04-10T10:26:42.199Z,13.67
2023-04-10T10:29:11.166Z,13.75
2023-04-10T10:31:39.573Z,13.58
2023-04-10T10:34:09.190Z,13.56
2023-04-10T10:36:37.418Z,13.76
2023-04-10T10:39:30.757Z,13.83
2023-04-10T10:42:03.620Z,13.53
2023-04-10T10:44:38.472Z,13.58
2023-04-10T10:47:10.697Z,13.52
2023-04-10T10:49:58.285Z,13.62
2023-04-10T10:52:40.159Z,13.77
2023-04-10T10:55:36.756Z,13.67
2023-04-10T10:58:06.296Z,13.75
2023-04-10T11:01:10.244Z,13.67
2023-04-10T11:03:38.547Z,14.05
2023-04-10T11:06:08.856Z,13.91
2023-04-10T11:08:45.797Z,14.16
2023-04-10T11:11:18.645Z,13.90
2023-04-10T11:14:17.876Z,13.65
2023-04-10T11:16:47.963Z,13.66
2023-04-10T11:19:19.107Z,13.74
2023-04-10T11:22:08.921Z,13.83
2023-04-10T11:24:59.658Z,14.04
2023-04-10T11:27:49.739Z,13.94
2023-04-10T11:30:27.431Z,14.09
2023-04-10T11:32:55.677Z,14.36
2023-04-10T11:35:23.666Z,14.89
2023-04-10T11:37:51.734Z,14.98
2023-04-10T11:40:19.758Z,14.66
2023-04-10T11:42:48.941Z,14.52
2023-04-10T11:45:29.816Z,14.68
2023-04-10T11:47:57.753Z,14.97
2023-04-10T11:50:32.349Z,14.74
2023-04-10T11:53:00.141Z,14.81
2023-04-10T11:55:38.343Z,14.73
2023-04-10T11:58:22.704Z,14.66
2023-04-10T12:00:57.676Z,14.77
2023-04-10T12:03:36.289Z,14.89
2023-04-10T12:06:05.008Z,14.99
2023-04-10T12:08:33.516Z,15.09
2023-04-10T12:11:01.790Z,14.95
2023-04-10T12:13:31.682Z,14.81
2023-04-10T12:16:00.958Z,14.77
2023-04-10T12:18:30.118Z,14.77
2023-04-10T12:20:59.172Z,14.83
2023-04-10T12:23:28.361Z,14.75
2023-04-10T12:26:13.449Z,15.00
2023-04-10T12:28:43.550Z,15.26
2023-04-10T12:31:11.720Z,15.41
2023-04-10T12:33:40.724Z,15.34
2023-04-10T12:36:21.383Z,15.47
2023-04-10T12:38:49.207Z,15.41
2023-04-10T12:41:22.751Z,15.68
2023-04-10T12:43:52.607Z,15.89
2023-04-10T12:46:27.930Z,15.54
2023-04-10T12:48:56.418Z,15.38
2023-04-10T12:51:48.723Z,15.50
2023-04-10T12:54:30.002Z,15.48
2023-04-10T12:56:57.835Z,15.61
2023-04-10T12:59:28.006Z,15.56
2023-04-10T13:01:56.385Z,15.60
2023-04-10T13:04:24.727Z,15.52
2023-04-10T13:06:53.231Z,15.29
2023-04-10T13:09:21.183Z,14.98
2023-04-10T13:11:51.472Z,14.99
2023-04-10T13:14:19.793Z,15.17
2023-04-10T13:16:49.215Z,15.11
2023-04-10T13:19:17.068Z,15.25
2023-04-10T13:21:44.984Z,15.35
2023-04-10T13:24:14.705Z,15.34
2023-04-10T13:26:43.872Z,15.08
2023-04-10T13:29:11.997Z,15.09
2023-04-10T13:31:39.826Z,15.07
2023-04-10T13:34:09.071Z,15.23
2023-04-10T13:36:37.136Z,15.24
2023-04-10T13:39:05.147Z,15.60
2023-04-10T13:41:32.982Z,15.37
2023-04-10T13:44:00.832Z,15.75
2023-04-10T13:46:28.657Z,15.97
2023-04-10T13:48:56.580Z,16.05
2023-04-10T13:51:26.621Z,15.74
2023-04-10T13:53:54.469Z,15.66
2023-04-10T13:56:22.310Z,15.85
2023-04-10T13:58:50.080Z,15.45
2023-04-10T14:01:18.003Z,15.61
2023-04-10T14:03:46.034Z,15.68
2023-04-10T14:06:14.290Z,15.83
2023-04-10T14:08:43.458Z,16.29
2023-04-10T14:11:11.306Z,16.39
2023-04-10T14:13:39.101Z,16.09
2023-04-10T14:16:07.868Z,15.82
2023-04-10T14:18:35.747Z,15.60
2023-04-10T14:21:03.616Z,15.70
2023-04-10T14:23:31.559Z,15.35
2023-04-10T14:26:00.814Z,15.51
2023-04-10T14:28:29.293Z,15.35
2023-04-10T14:30:57.092Z,15.47
2023-04-10T14:33:24.901Z,15.74
2023-04-10T14:35:54.106Z,15.68
2023-04-10T14:38:21.971Z,15.69
2023-04-10T14:40:50.760Z,15.73
2023-04-10T14:43:19.960Z,15.30
2023-04-10T14:45:47.947Z,15.27
2023-04-10T14:48:16.053Z,15.33
2023-04-10T14:50:43.963Z,15.31
2023-04-10T14:53:11.784Z,15.45
2023-04-10T14:55:39.588Z,15.24
2023-04-10T14:58:09.014Z,15.37
2023-04-10T15:00:45.877Z,15.21
2023-04-10T15:03:13.743Z,15.43
2023-04-10T15:05:41.765Z,15.52
2023-04-10T15:08:09.525Z,15.44
2023-04-10T15:10:37.391Z,15.50
2023-04-10T15:13:06.011Z,15.43
2023-04-10T15:15:33.899Z,15.33
2023-04-10T15:18:03.095Z,15.44
2023-04-10T15:20:30.975Z,15.43
2023-04-10T15:22:58.817Z,15.45
2023-04-10T15:25:27.423Z,15.51
2023-04-10T15:27:56.456Z,15.55
2023-04-10T15:30:24.490Z,15.38
2023-04-10T15:32:52.350Z,15.28
2023-04-10T15:35:21.924Z,15.38
2023-04-10T15:37:49.747Z,15.22
2023-04-10T15:40:17.710Z,15.24
2023-04-10T15:42:45.736Z,15.19
2023-04-10T15:45:13.530Z,15.25
2023-04-10T15:47:41.403Z,15.25
2023-04-10T15:50:10.774Z,15.18
2023-04-10T15:52:40.201Z,15.03
2023-04-10T15:55:08.857Z,15.07
2023-04-10T15:57:36.670Z,15.09
2023-04-10T16:00:04.943Z,15.04
2023-04-10T16:02:33.180Z,15.08
2023-04-10T16:05:01.177Z,15.05
2023-04-10T16:07:29.122Z,15.03
2023-04-10T16:09:58.378Z,14.99
2023-04-10T16:12:26.301Z,14.92
2023-04-10T16:14:54.112Z,14.86
2023-04-10T16:17:21.943Z,14.81
2023-04-10T16:19:49.782Z,14.78
2023-04-10T16:22:17.587Z,14.79
2023-04-10T16:24:45.411Z,14.85
2023-04-10T16:27:14.615Z,14.85
2023-04-10T16:29:42.420Z,14.74
2023-04-10T16:32:10.224Z,14.79
2023-04-10T16:34:38.098Z,14.67
2023-04-10T16:37:05.999Z,14.62
2023-04-10T16:39:33.795Z,14.64
2023-04-10T16:42:03.497Z,14.57
2023-04-10T16:44:32.911Z,14.58
2023-04-10T16:47:00.944Z,14.62
2023-04-10T16:49:28.791Z,14.58
2023-04-10T16:51:56.599Z,14.58
2023-04-10T16:54:24.412Z,14.60
2023-04-10T16:56:52.216Z,14.63
2023-04-10T16:59:20.060Z,14.62
2023-04-10T17:01:49.230Z,14.52
2023-04-10T17:04:19.098Z,14.53
2023-04-10T17:06:47.007Z,14.56
2023-04-10T17:09:14.816Z,14.49
2023-04-10T17:11:42.645Z,14.50
2023-04-10T17:14:10.611Z,14.48
2023-04-10T17:16:38.460Z,14.38
2023-04-10T17:19:07.625Z,14.40
2023-04-10T17:21:35.766Z,14.43
2023-04-10T17:24:03.690Z,14.31
2023-04-10T17:26:31.872Z,14.25
2023-04-10T17:28:59.662Z,14.25
2023-04-10T17:31:27.543Z,14.21
2023-04-10T17:33:55.432Z,14.25
2023-04-10T17:36:24.788Z,14.25
2023-04-10T17:38:54.176Z,14.18
2023-04-10T17:41:22.184Z,14.13
2023-04-10T17:43:49.970Z,14.18
2023-04-10T17:46:17.807Z,14.14
2023-04-10T17:48:46.106Z,14.13
2023-04-10T17:51:14.085Z,14.12
2023-04-10T17:53:43.343Z,14.07
2023-04-10T17:56:18.459Z,14.01
2023-04-10T17:58:47.488Z,14.00
2023-04-10T18:01:22.527Z,13.98
2023-04-10T18:03:50.590Z,13.89
2023-04-10T18:06:18.741Z,13.91
2023-04-10T18:08:48.141Z,13.92
2023-04-10T18:11:15.991Z,13.93
2023-04-10T18:13:43.766Z,13.84
2023-04-10T18:16:12.021Z,13.79
2023-04-10T18:18:41.862Z,13.70
2023-04-10T18:21:10.472Z,13.71
2023-04-10T18:23:39.471Z,13.71
2023-04-10T18:26:08.930Z,13.74
2023-04-10T18:28:37.898Z,13.65
2023-04-10T18:31:06.459Z,13.66
2023-04-10T18:33:34.442Z,13.63
2023-04-10T18:36:03.540Z,13.66
2023-04-10T18:38:31.445Z,13.66
2023-04-10T18:40:59.487Z,13.58
2023-04-10T18:43:28.701Z,13.63
2023-04-10T18:45:56.510Z,13.62
2023-04-10T18:48:24.448Z,13.58
2023-04-10T18:50:53.170Z,13.55
2023-04-10T18:53:21.163Z,13.57
2023-04-10T18:55:53.079Z,13.59
2023-04-10T18:58:21.557Z,13.54
2023-04-10T19:00:50.957Z,13.52
2023-04-10T19:03:19.917Z,13.51
2023-04-10T19:05:47.942Z,13.53
2023-04-10T19:08:17.085Z,13.48
2023-04-10T19:10:44.893Z,13.44
2023-04-10T19:13:13.249Z,13.36
2023-04-10T19:15:42.480Z,13.23
2023-04-10T19:18:13.120Z,13.06
2023-04-10T19:20:50.788Z,12.92
2023-04-10T19:23:20.557Z,12.84
2023-04-10T19:25:48.555Z,12.73
2023-04-10T19:28:16.320Z,12.62
2023-04-10T19:30:44.069Z,12.47
2023-04-10T19:33:13.257Z,12.41
2023-04-10T19:35:41.120Z,12.35
2023-04-10T19:38:09.034Z,12.28
2023-04-10T19:40:37.224Z,12.23
2023-04-10T19:43:05.176Z,12.14
2023-04-10T19:45:33.292Z,12.09
2023-04-10T19:48:01.239Z,11.95
2023-04-10T19:50:31.350Z,11.84
2023-04-10T19:52:59.515Z,11.73
2023-04-10T19:55:27.717Z,11.65
2023-04-10T19:57:55.793Z,11.57
2023-04-10T20:00:23.622Z,11.51
2023-04-10T20:02:51.642Z,11.43
2023-04-10T20:05:19.757Z,11.41
2023-04-10T20:07:49.056Z,11.38
2023-04-10T20:10:16.830Z,11.36
2023-04-10T20:12:44.639Z,11.33
2023-04-10T20:15:13.505Z,11.32
2023-04-10T20:17:41.322Z,11.31
2023-04-10T20:20:10.089Z,11.28
2023-04-10T20:22:37.916Z,11.24
2023-04-10T20:25:08.409Z,11.17
2023-04-10T20:27:36.175Z,11.12
2023-04-10T20:30:04.311Z,11.10
2023-04-10T20:32:32.099Z,11.11
2023-04-10T20:34:59.901Z,11.16
2023-04-10T20:37:27.796Z,11.23
2023-04-10T20:39:55.600Z,11.28
2023-04-10T20:42:24.775Z,11.33
2023-04-10T20:44:52.743Z,11.38
2023-04-10T20:47:20.668Z,11.42
2023-04-10T20:49:48.420Z,11.43
2023-04-10T20:52:16.188Z,11.44
2023-04-10T20:54:43.975Z,11.45
2023-04-10T20:57:11.760Z,11.41
2023-04-10T20:59:40.930Z,11.43
2023-04-10T21:02:08.889Z,11.43
2023-04-10T21:04:36.741Z,11.45
2023-04-10T21:07:04.507Z,11.46
2023-04-10T21:09:32.276Z,11.45
2023-04-10T21:12:00.028Z,11.44
2023-04-10T21:14:27.819Z,11.47
2023-04-10T21:16:56.997Z,11.45
2023-04-10T21:19:24.851Z,11.39
2023-04-10T21:21:52.609Z,11.42
2023-04-10T21:24:20.393Z,11.41
2023-04-10T21:26:48.237Z,11.37
2023-04-10T21:29:16.096Z,11.35
2023-04-10T21:31:44.229Z,11.35
2023-04-10T21:34:13.537Z,11.33
2023-04-10T21:36:41.310Z,11.33
2023-04-10T21:39:09.507Z,11.29
2023-04-10T21:41:37.487Z,11.28
2023-04-10T21:44:05.519Z,11.24
2023-04-10T21:46:33.836Z,11.26
2023-04-10T21:49:01.645Z,11.25
2023-04-10T21:51:31.100Z,11.25
2023-04-10T21:53:58.919Z,11.19
2023-04-10T21:56:26.786Z,11.17
2023-04-10T21:58:54.730Z,11.10
2023-04-10T22:01:22.940Z,10.97
2023-04-10T22:03:50.970Z,10.98
2023-04-10T22:06:18.826Z,10.91
2023-04-10T22:08:48.012Z,10.86
2023-04-10T22:11:15.778Z,10.80
2023-04-10T22:13:43.550Z,10.74
2023-04-10T22:16:11.349Z,10.69
2023-04-10T22:18:39.230Z,10.66
2023-04-10T22:21:07.418Z,10.61
2023-04-10T22:23:35.245Z,10.48
2023-04-10T22:26:04.368Z,10.39
2023-04-10T22:28:32.160Z,10.35
2023-04-10T22:30:59.990Z,10.31
2023-04-10T22:33:27.844Z,10.26
2023-04-10T22:35:55.741Z,9.98
2023-04-10T22:38:23.571Z,10.20
2023-04-10T22:40:51.369Z,10.19
2023-04-10T22:43:20.519Z,10.20
2023-04-10T22:45:48.368Z,10.19
2023-04-10T22:48:16.204Z,10.16
2023-04-10T22:50:43.983Z,10.14
2023-04-10T22:53:12.186Z,10.13
2023-04-10T22:55:40.047Z,9.87
2023-04-10T22:58:07.945Z,10.12
2023-04-10T23:00:37.262Z,10.12
2023-04-10T23:03:05.286Z,10.09
2023-04-10T23:05:34.072Z,10.08
2023-04-10T23:08:13.161Z,9.98
2023-04-10T23:10:40.962Z,9.91
2023-04-10T23:13:08.774Z,9.86
2023-04-10T23:15:38.074Z,9.83
2023-04-10T23:18:06.120Z,9.70
2023-04-10T23:20:34.634Z,9.59
2023-04-10T23:23:02.672Z,9.45
2023-04-10T23:25:30.619Z,9.34
2023-04-10T23:27:59.894Z,9.24
2023-04-10T23:30:28.976Z,9.12
2023-04-10T23:32:58.349Z,9.03
2023-04-10T23:35:27.973Z,8.89
2023-04-10T23:37:55.808Z,8.93
2023-04-10T23:40:23.776Z,8.91
2023-04-10T23:42:51.828Z,8.83
2023-04-10T23:45:19.650Z,8.73
2023-04-10T23:47:49.521Z,8.67
2023-04-10T23:50:20.334Z,8.62
2023-04-10T23:52:50.263Z,8.58
2023-04-10T23:55:18.626Z,8.54
2023-04-10T23:57:46.390Z,8.50
